TAF Text Data
IDs:
Format:
Raw Decoded Include METAR

Data at: 1632 UTC 20 May 2022

WSSS 201630Z 01002KT 9999 FEW018 BKN300 26/23 Q1011 NOSIG

TAF WSSS 201100Z 2012/2118 17007KT 9999 FEW015 SCT020